Time;durP1;ratioP1;P1;durP2;ratioP2;P2;SDS_P1;SDS_P2;PMS_P1;PMS_P2;Temp;Humidity;BMP_temperature;BMP_pressure;BME280_temperature;BME280_humidity;BME280_pressure;Samples;Min_cycle;Max_cycle;Signal;HPM_P1;HPM_P2
2023/04/22 00:00:47;;;;;;;8.98;5.47;;;18.80;70.00;;;;;;5051366;28;20486;-29
2023/04/22 00:03:13;;;;;;;7.03;5.22;;;19.20;70.60;;;;;;5051053;28;20056;-29
2023/04/22 00:05:41;;;;;;;8.13;5.07;;;;;;;;;;5050799;28;20064;-30
2023/04/22 00:08:08;;;;;;;9.25;5.30;;;18.90;70.00;;;;;;5031404;28;20406;-29
2023/04/22 00:10:35;;;;;;;7.18;5.10;;;;;;;;;;5031313;28;20045;-30
2023/04/22 00:13:02;;;;;;;7.88;5.00;;;;;;;;;;5013745;28;20049;-29
2023/04/22 00:15:29;;;;;;;8.43;5.18;;;;;;;;;;5031457;28;20053;-30
2023/04/22 00:17:57;;;;;;;8.40;5.32;;;19.60;70.40;;;;;;5031328;28;20092;-29
2023/04/22 00:20:24;;;;;;;9.57;5.07;;;19.30;70.70;;;;;;5050917;28;20052;-29
2023/04/22 00:22:51;;;;;;;8.52;5.03;;;;;;;;;;5050949;28;20048;-30
2023/04/22 00:25:18;;;;;;;8.10;5.20;;;18.80;66.60;;;;;;5051430;28;20051;-29
2023/04/22 00:27:45;;;;;;;6.90;5.03;;;;;;;;;;5055157;28;20171;-29
2023/04/22 00:30:12;;;;;;;9.93;4.90;;;20.20;70.30;;;;;;5071348;28;20056;-29
2023/04/22 00:32:40;;;;;;;6.60;4.82;;;;;;;;;;5061515;28;20053;-30
2023/04/22 00:35:08;;;;;;;7.28;4.65;;;18.80;70.00;;;;;;5051425;28;20049;-29
2023/04/22 00:37:35;;;;;;;5.75;4.68;;;19.50;70.00;;;;;;5050474;28;20056;-29
2023/04/22 00:40:02;;;;;;;7.00;4.75;;;19.30;60.20;;;;;;5051210;28;20049;-29
2023/04/22 00:42:29;;;;;;;7.28;4.53;;;19.20;70.20;;;;;;5051104;28;20049;-29
2023/04/22 00:44:56;;;;;;;7.53;4.90;;;;;;;;;;5051223;28;20041;-29
2023/04/22 00:47:25;;;;;;;7.85;5.18;;;19.30;70.20;;;;;;5050275;28;20048;-29
2023/04/22 00:49:52;;;;;;;6.78;4.88;;;;;;;;;;5051811;28;20045;-30
2023/04/22 00:52:20;;;;;;;6.28;4.28;;;18.60;69.50;;;;;;5054466;28;20061;-29
2023/04/22 00:54:48;;;;;;;5.82;4.20;;;;;;;;;;5054287;28;20416;-29
2023/04/22 00:57:15;;;;;;;5.82;4.20;;;19.40;70.30;;;;;;5054555;28;20041;-29
2023/04/22 00:59:42;;;;;;;6.03;4.55;;;19.10;69.80;;;;;;5054240;28;20060;-29
2023/04/22 01:02:09;;;;;;;6.53;4.45;;;19.40;70.80;;;;;;5054253;28;20053;-29
2023/04/22 01:04:35;;;;;;;6.15;4.40;;;18.90;70.70;;;;;;5054377;28;20041;-29
2023/04/22 01:07:02;;;;;;;6.20;4.20;;;;;;;;;;5054548;28;20049;-29
2023/04/22 01:09:30;;;;;;;8.48;4.70;;;19.10;50.80;;;;;;5054317;28;20057;-29
2023/04/22 01:11:57;;;;;;;5.32;3.85;;;18.20;69.40;;;;;;5054493;28;20504;-29
2023/04/22 01:14:24;;;;;;;7.43;4.60;;;18.90;69.90;;;;;;5053994;28;20049;-29
2023/04/22 01:16:52;;;;;;;7.75;4.80;;;;;;;;;;5053692;28;20044;-31
2023/04/22 01:19:19;;;;;;;6.05;4.32;;;19.20;63.10;;;;;;5054160;28;20048;-29
2023/04/22 01:21:46;;;;;;;5.20;4.00;;;;;;;;;;5054079;28;20390;-30
2023/04/22 01:24:14;;;;;;;5.60;4.03;;;18.70;51.00;;;;;;5054200;28;20420;-29
2023/04/22 01:26:41;;;;;;;6.35;4.32;;;19.60;55.40;;;;;;5053783;28;20049;-30
2023/04/22 01:29:08;;;;;;;4.90;3.95;;;18.70;69.70;;;;;;5059901;28;20045;-29
2023/04/22 01:31:34;;;;;;;6.38;4.07;;;19.90;69.80;;;;;;5053808;28;20087;-29
2023/04/22 01:34:01;;;;;;;7.53;4.55;;;;;;;;;;5053691;28;20083;-29
2023/04/22 01:36:28;;;;;;;6.35;3.80;;;19.40;70.00;;;;;;5053483;28;20057;-29
2023/04/22 01:38:55;;;;;;;5.97;3.90;;;19.30;70.50;;;;;;5053694;28;20635;-29
2023/04/22 01:41:23;;;;;;;6.60;4.00;;;19.20;70.00;;;;;;5053768;28;20512;-29
2023/04/22 01:43:50;;;;;;;6.50;4.15;;;19.40;70.50;;;;;;5053119;28;20048;-29
2023/04/22 01:46:17;;;;;;;5.13;3.70;;;18.70;69.80;;;;;;5053512;28;20071;-29
2023/04/22 01:48:49;;;;;;;5.70;4.70;;;18.80;66.90;;;;;;5054011;28;20053;-29
2023/04/22 01:51:16;;;;;;;5.43;4.00;;;19.00;50.90;;;;;;5053532;28;20476;-30
2023/04/22 01:53:42;;;;;;;5.47;4.13;;;18.60;70.20;;;;;;5053282;28;20408;-29
2023/04/22 01:56:09;;;;;;;6.95;4.22;;;18.60;69.90;;;;;;5053280;28;20053;-29
2023/04/22 01:58:38;;;;;;;4.53;3.63;;;18.90;50.80;;;;;;5053161;28;20052;-30
2023/04/22 02:01:05;;;;;;;4.60;3.90;;;19.10;71.00;;;;;;5052459;28;20045;-29
2023/04/22 02:03:32;;;;;;;6.00;3.97;;;18.50;58.50;;;;;;5053190;28;20106;-29
2023/04/22 02:05:59;;;;;;;5.18;3.80;;;19.40;70.20;;;;;;5053223;28;20051;-29
2023/04/22 02:08:26;;;;;;;4.78;3.55;;;18.40;70.60;;;;;;5053198;28;20412;-29
2023/04/22 02:10:53;;;;;;;6.70;4.07;;;;;;;;;;5053281;28;20094;-29
2023/04/22 02:13:19;;;;;;;6.15;4.18;;;19.60;70.40;;;;;;5052214;28;20051;-29
2023/04/22 02:15:47;;;;;;;5.15;3.83;;;19.10;70.20;;;;;;5053296;28;20056;-29
2023/04/22 02:18:16;;;;;;;5.03;3.70;;;18.40;69.80;;;;;;5052868;28;20059;-29
2023/04/22 02:20:43;;;;;;;5.88;3.88;;;19.00;70.10;;;;;;5053160;28;20182;-29
2023/04/22 02:23:10;;;;;;;5.22;3.75;;;18.90;70.20;;;;;;5052339;28;20131;-29
2023/04/22 02:25:37;;;;;;;4.40;3.83;;;;;;;;;;5052766;28;20469;-30
2023/04/22 02:28:03;;;;;;;3.63;3.20;;;18.60;55.40;;;;;;5050616;28;20493;-29
2023/04/22 02:30:30;;;;;;;5.45;3.83;;;19.20;70.20;;;;;;5051393;28;20055;-29
2023/04/22 02:32:58;;;;;;;6.10;3.47;;;18.60;51.10;;;;;;5052782;28;20408;-30
2023/04/22 02:35:25;;;;;;;5.65;3.80;;;;;;;;;;5051827;28;20412;-29
2023/04/22 02:37:52;;;;;;;8.30;3.80;;;19.20;70.50;;;;;;5051837;28;20045;-29
2023/04/22 02:40:19;;;;;;;5.10;3.67;;;19.20;70.40;;;;;;5051969;28;20400;-29
2023/04/22 02:42:47;;;;;;;4.97;3.72;;;18.80;58.20;;;;;;5052204;28;20059;-29
2023/04/22 02:45:14;;;;;;;6.93;3.70;;;;;;;;;;5052334;28;20045;-29
2023/04/22 02:47:41;;;;;;;3.95;3.40;;;19.00;70.80;;;;;;5052160;28;20167;-29
2023/04/22 02:50:10;;;;;;;4.72;3.83;;;19.70;53.50;;;;;;5052126;28;20052;-29
2023/04/22 02:52:37;;;;;;;5.28;3.75;;;19.80;71.30;;;;;;5051593;28;20045;-29
2023/04/22 02:55:04;;;;;;;5.25;3.75;;;;;;;;;;5033812;28;20502;-30
2023/04/22 02:57:31;;;;;;;5.47;3.42;;;19.00;71.10;;;;;;5051337;28;20070;-29
2023/04/22 02:59:57;;;;;;;4.53;3.95;;;18.90;70.70;;;;;;5052061;28;20055;-29
2023/04/22 03:02:24;;;;;;;5.63;3.97;;;19.30;59.70;;;;;;5051796;28;20051;-29
2023/04/22 03:04:53;;;;;;;4.80;3.95;;;18.90;70.80;;;;;;5051909;28;20099;-29
2023/04/22 03:07:21;;;;;;;4.70;3.65;;;18.60;71.10;;;;;;5052028;28;20099;-29
2023/04/22 03:09:47;;;;;;;4.55;3.60;;;19.50;70.70;;;;;;5050479;28;20075;-28
2023/04/22 03:12:15;;;;;;;4.50;3.58;;;;;;;;;;5051514;28;20055;-30
2023/04/22 03:14:41;;;;;;;5.72;3.47;;;19.10;70.60;;;;;;5051024;28;20068;-29
2023/04/22 03:17:09;;;;;;;4.50;3.30;;;;;;;;;;5051991;28;20055;-30
2023/04/22 03:19:35;;;;;;;5.47;3.70;;;18.70;70.80;;;;;;5051952;28;20055;-29
2023/04/22 03:22:02;;;;;;;4.57;3.50;;;18.50;70.30;;;;;;5051050;28;20513;-29
2023/04/22 03:24:30;;;;;;;4.82;3.60;;;17.90;62.80;;;;;;5051154;28;20045;-29
2023/04/22 03:26:57;;;;;;;5.07;3.75;;;18.50;59.80;;;;;;5051606;28;20063;-29
2023/04/22 03:29:23;;;;;;;3.90;3.40;;;18.70;71.00;;;;;;5067920;28;20497;-29
2023/04/22 03:31:50;;;;;;;4.80;3.45;;;18.80;67.20;;;;;;5071352;28;20048;-29
2023/04/22 03:34:17;;;;;;;3.95;3.47;;;;;;;;;;5071501;28;20048;-30
2023/04/22 03:36:44;;;;;;;4.80;3.80;;;18.50;70.30;;;;;;5062839;28;20049;-29
2023/04/22 03:39:11;;;;;;;4.50;3.65;;;;;;;;;;5050873;28;20524;-30
2023/04/22 03:41:39;;;;;;;4.80;3.40;;;17.80;70.00;;;;;;5051761;28;20580;-29
2023/04/22 03:44:06;;;;;;;3.78;3.25;;;19.10;71.40;;;;;;5051410;28;20262;-28
2023/04/22 03:46:32;;;;;;;4.93;3.42;;;19.10;71.60;;;;;;5051662;28;20056;-29
2023/04/22 03:48:59;;;;;;;4.38;3.25;;;;;;;;;;5051387;28;20432;-29
2023/04/22 03:51:26;;;;;;;4.53;3.70;;;18.60;71.20;;;;;;5051204;28;20520;-29
2023/04/22 03:53:53;;;;;;;3.67;3.20;;;19.00;71.00;;;;;;5051296;28;20045;-29
2023/04/22 03:56:20;;;;;;;4.82;3.60;;;18.50;54.10;;;;;;5051403;28;20045;-29
2023/04/22 03:58:48;;;;;;;3.90;3.35;;;18.30;70.20;;;;;;5051100;28;20568;-29
2023/04/22 04:01:14;;;;;;;4.53;3.80;;;19.80;71.00;;;;;;5051487;28;20045;-29
2023/04/22 04:03:41;;;;;;;4.70;3.58;;;19.00;70.50;;;;;;5051232;28;20049;-29
2023/04/22 04:06:08;;;;;;;4.88;3.67;;;19.40;55.40;;;;;;5051395;28;20049;-30
2023/04/22 04:08:35;;;;;;;4.55;3.72;;;19.40;71.50;;;;;;5051063;28;20053;-29
2023/04/22 04:11:01;;;;;;;4.60;3.28;;;18.60;71.10;;;;;;5051675;28;20051;-28
2023/04/22 04:13:31;;;;;;;4.75;3.60;;;;;;;;;;5050762;28;20519;-29
2023/04/22 04:16:00;;;;;;;4.07;3.45;;;18.70;70.40;;;;;;5051303;28;20045;-29
2023/04/22 04:18:28;;;;;;;4.15;3.28;;;18.90;68.70;;;;;;5051069;28;20064;-29
2023/04/22 04:20:55;;;;;;;3.80;3.38;;;18.80;70.40;;;;;;5051321;28;20053;-29
2023/04/22 04:23:22;;;;;;;3.85;3.15;;;18.70;70.30;;;;;;5051168;28;20049;-29
2023/04/22 04:25:48;;;;;;;4.00;3.30;;;18.70;57.60;;;;;;5053904;28;20053;-29
2023/04/22 04:28:16;;;;;;;5.45;3.50;;;18.50;70.10;;;;;;5063026;28;20051;-29
2023/04/22 04:30:43;;;;;;;3.78;3.22;;;17.30;65.10;;;;;;5074681;28;20576;-29
2023/04/22 04:33:11;;;;;;;4.65;3.92;;;18.80;71.20;;;;;;5074894;28;20505;-29
2023/04/22 04:35:37;;;;;;;4.63;3.40;;;18.30;61.90;;;;;;5074910;28;20051;-29
2023/04/22 04:38:05;;;;;;;4.22;3.22;;;18.70;62.00;;;;;;5055176;28;20060;-28
2023/04/22 04:40:31;;;;;;;5.05;3.60;;;18.50;70.50;;;;;;5054651;28;20395;-29
2023/04/22 04:43:01;;;;;;;3.90;3.45;;;19.20;70.70;;;;;;5054569;28;20056;-29
2023/04/22 04:45:28;;;;;;;4.53;3.60;;;;;;;;;;5055549;28;20517;-30
2023/04/22 04:47:55;;;;;;;4.35;3.55;;;;;;;;;;5054239;28;20049;-30
2023/04/22 04:50:26;;;;;;;3.70;3.30;;;18.40;70.10;;;;;;5054920;28;20055;-29
2023/04/22 04:52:53;;;;;;;5.75;3.50;;;;;;;;;;5054425;28;20106;-30
2023/04/22 04:55:20;;;;;;;4.35;3.45;;;18.70;70.40;;;;;;5054594;28;20045;-29
2023/04/22 04:57:47;;;;;;;4.43;3.50;;;18.10;70.90;;;;;;5054220;28;20053;-29
2023/04/22 05:00:14;;;;;;;4.43;3.38;;;18.90;56.80;;;;;;5054303;28;20049;-30
2023/04/22 05:02:40;;;;;;;3.72;3.40;;;19.60;70.80;;;;;;5053923;28;20556;-29
2023/04/22 05:05:08;;;;;;;3.85;3.45;;;18.50;50.60;;;;;;5054539;28;20044;-30
2023/04/22 05:07:36;;;;;;;4.22;3.40;;;19.20;71.00;;;;;;5054496;28;20056;-29
2023/04/22 05:10:03;;;;;;;4.80;3.40;;;18.90;70.80;;;;;;5054322;28;20416;-29
2023/04/22 05:12:30;;;;;;;3.90;3.33;;;;;;;;;;5054304;28;20052;-29
2023/04/22 05:14:57;;;;;;;3.55;3.08;;;19.20;70.50;;;;;;5053593;28;20416;-29
2023/04/22 05:17:23;;;;;;;4.00;3.60;;;19.40;71.50;;;;;;5053992;28;20045;-29
2023/04/22 05:19:50;;;;;;;3.92;3.53;;;;;;;;;;5053951;28;20135;-30
2023/04/22 05:22:17;;;;;;;3.95;3.55;;;17.60;70.10;;;;;;5053847;28;20056;-29
2023/04/22 05:24:45;;;;;;;5.05;3.40;;;18.50;50.60;;;;;;5054381;28;20053;-30
2023/04/22 05:27:12;;;;;;;4.38;3.50;;;;;;;;;;5053424;28;20071;-29
2023/04/22 05:29:39;;;;;;;4.50;3.60;;;18.80;70.30;;;;;;5073727;28;20130;-29
2023/04/22 05:32:07;;;;;;;4.25;3.53;;;18.70;70.30;;;;;;5064084;28;20048;-29
2023/04/22 05:34:34;;;;;;;3.70;3.40;;;19.00;71.40;;;;;;5053717;28;20055;-29
2023/04/22 05:37:02;;;;;;;3.95;3.53;;;18.50;61.60;;;;;;5052300;28;20057;-29
2023/04/22 05:39:29;;;;;;;4.20;3.40;;;;;;;;;;5053831;28;20072;-30
2023/04/22 05:41:57;;;;;;;4.00;3.60;;;18.60;70.20;;;;;;5053465;28;20136;-29
2023/04/22 05:44:24;;;;;;;5.35;3.70;;;18.90;70.40;;;;;;5053469;28;20051;-29
2023/04/22 05:46:51;;;;;;;3.85;3.45;;;;;;;;;;5053646;28;20052;-30
2023/04/22 05:49:18;;;;;;;4.28;3.63;;;18.80;63.70;;;;;;5052552;28;20055;-29
2023/04/22 05:51:45;;;;;;;4.30;3.90;;;;;;;;;;5033693;28;20061;-29
2023/04/22 05:54:11;;;;;;;4.47;3.50;;;17.50;63.70;;;;;;5033154;28;20049;-29
2023/04/22 05:56:38;;;;;;;4.20;3.35;;;18.60;70.30;;;;;;5033875;28;20487;-29
2023/04/22 05:59:06;;;;;;;4.68;3.92;;;19.60;67.30;;;;;;5033273;28;20045;-29
2023/04/22 06:01:33;;;;;;;3.78;3.40;;;18.40;71.00;;;;;;5052159;28;20059;-29
2023/04/22 06:04:00;;;;;;;4.25;3.45;;;;;;;;;;5053236;28;20059;-30
2023/04/22 06:06:27;;;;;;;4.00;3.60;;;19.40;56.80;;;;;;5053127;28;20052;-29
2023/04/22 06:08:54;;;;;;;4.15;3.45;;;;;;;;;;5053284;28;20052;-29
2023/04/22 06:11:20;;;;;;;4.35;3.58;;;18.70;70.40;;;;;;5053272;28;20059;-29
2023/04/22 06:13:47;;;;;;;4.45;3.88;;;18.80;70.40;;;;;;5053107;28;20816;-29
2023/04/22 06:16:15;;;;;;;4.85;3.50;;;18.70;57.50;;;;;;5052663;28;20048;-29
2023/04/22 06:18:43;;;;;;;4.28;3.70;;;18.50;54.10;;;;;;5052938;28;20055;-29
2023/04/22 06:21:09;;;;;;;4.57;3.80;;;19.20;53.70;;;;;;5052782;28;20053;-29
2023/04/22 06:23:36;;;;;;;4.53;3.63;;;18.80;61.00;;;;;;5052583;28;20521;-29
2023/04/22 06:26:03;;;;;;;3.83;3.47;;;18.00;70.00;;;;;;5053036;28;20055;-29
2023/04/22 06:28:30;;;;;;;4.60;3.50;;;;;;;;;;5054888;28;20051;-30
2023/04/22 06:30:57;;;;;;;4.63;3.60;;;18.80;70.80;;;;;;5052877;28;20075;-29
2023/04/22 06:33:25;;;;;;;4.63;3.70;;;18.70;70.50;;;;;;5034880;28;20096;-29
2023/04/22 06:35:52;;;;;;;5.18;3.95;;;18.20;70.50;;;;;;5052181;28;20041;-29
2023/04/22 06:38:18;;;;;;;4.20;3.80;;;18.40;50.90;;;;;;5053964;28;20409;-29
2023/04/22 06:40:45;;;;;;;4.03;3.60;;;18.70;70.40;;;;;;5072100;28;20044;-29
2023/04/22 06:43:12;;;;;;;5.28;3.63;;;18.40;71.20;;;;;;5065180;28;20063;-29
2023/04/22 06:45:39;;;;;;;4.05;3.42;;;;;;;;;;5052201;28;20055;-30
2023/04/22 06:48:06;;;;;;;4.05;3.58;;;18.10;70.10;;;;;;5052162;28;20135;-29
2023/04/22 06:50:34;;;;;;;4.13;3.72;;;18.50;50.60;;;;;;5045165;28;20128;-31
2023/04/22 06:53:01;;;;;;;4.20;3.60;;;;;;;;;;5051026;28;20088;-31
2023/04/22 06:55:28;;;;;;;4.10;3.38;;;17.30;69.60;;;;;;5050744;28;20429;-30
2023/04/22 06:57:55;;;;;;;3.65;3.35;;;19.30;70.60;;;;;;5051105;28;20080;-30
2023/04/22 07:00:21;;;;;;;5.32;3.40;;;17.40;58.70;;;;;;5051816;28;20051;-30
2023/04/22 07:02:48;;;;;;;5.25;3.42;;;18.60;70.70;;;;;;5051294;28;20523;-29
2023/04/22 07:05:15;;;;;;;4.05;3.42;;;19.40;71.10;;;;;;5051495;28;20055;-29
2023/04/22 07:07:43;;;;;;;3.80;3.40;;;19.60;50.90;;;;;;5031460;28;20128;-30
2023/04/22 07:10:12;;;;;;;4.18;3.42;;;18.90;50.40;;;;;;5031952;28;20506;-29
2023/04/22 07:12:39;;;;;;;3.90;3.50;;;17.60;58.50;;;;;;5040666;28;20045;-29
2023/04/22 07:15:07;;;;;;;4.47;3.60;;;19.10;50.30;;;;;;5051280;28;20386;-30
2023/04/22 07:17:34;;;;;;;3.70;3.30;;;;;;;;;;5035999;28;20499;-31
2023/04/22 07:20:00;;;;;;;3.50;3.20;;;18.50;70.00;;;;;;5034797;28;20458;-29
2023/04/22 07:22:27;;;;;;;3.28;2.97;;;19.50;61.50;;;;;;5050814;28;20060;-29
2023/04/22 07:24:55;;;;;;;4.32;3.35;;;19.40;50.10;;;;;;5051813;28;20044;-29
2023/04/22 07:27:22;;;;;;;4.13;3.60;;;19.90;61.80;;;;;;5052342;28;20053;-29
2023/04/22 07:29:49;;;;;;;3.65;2.95;;;19.90;69.80;;;;;;5071808;28;20511;-30
2023/04/22 07:32:16;;;;;;;9.70;3.30;;;;;;;;;;5071584;28;20055;-30
2023/04/22 07:34:43;;;;;;;3.85;3.03;;;;;;;;;;5058920;28;20053;-32
2023/04/22 07:37:09;;;;;;;3.55;3.25;;;20.00;70.10;;;;;;5031918;28;20399;-30
2023/04/22 07:39:37;;;;;;;4.55;3.30;;;;;;;;;;5050938;28;20053;-31
2023/04/22 07:42:06;;;;;;;5.70;3.13;;;19.70;49.80;;;;;;5051606;28;20048;-31
2023/04/22 07:44:32;;;;;;;5.75;3.30;;;20.00;53.00;;;;;;5051773;28;20053;-30
2023/04/22 07:46:59;;;;;;;3.47;2.80;;;19.10;53.60;;;;;;5050792;28;20482;-29
2023/04/22 07:49:26;;;;;;;4.75;3.20;;;;;;;;;;5051242;28;20116;-30
2023/04/22 07:51:53;;;;;;;3.38;2.80;;;20.40;69.00;;;;;;5051107;28;20059;-30
2023/04/22 07:54:20;;;;;;;4.88;3.15;;;19.60;69.20;;;;;;5051210;28;20055;-29
2023/04/22 07:56:46;;;;;;;3.88;3.22;;;19.40;68.50;;;;;;5051436;28;20104;-29
2023/04/22 07:59:14;;;;;;;4.78;3.40;;;19.50;58.10;;;;;;5050548;28;20048;-30
2023/04/22 08:01:41;;;;;;;3.90;3.08;;;19.80;55.30;;;;;;5055659;28;20049;-30
2023/04/22 08:04:08;;;;;;;3.58;3.00;;;19.60;68.20;;;;;;5054826;28;20049;-29
2023/04/22 08:06:34;;;;;;;3.65;3.00;;;20.40;69.60;;;;;;5054733;28;20055;-30
2023/04/22 08:09:01;;;;;;;3.95;3.17;;;;;;;;;;5055482;28;20198;-30
2023/04/22 08:11:28;;;;;;;3.35;2.95;;;19.70;68.10;;;;;;5055430;28;20432;-29
2023/04/22 08:13:55;;;;;;;3.42;3.10;;;19.90;69.10;;;;;;5053691;28;20128;-30
2023/04/22 08:16:23;;;;;;;4.72;2.90;;;19.80;57.60;;;;;;5055472;28;20045;-30
2023/04/22 08:18:50;;;;;;;3.55;3.00;;;19.90;54.40;;;;;;5054620;28;20408;-30
2023/04/22 08:21:18;;;;;;;3.58;2.90;;;;;;;;;;5055225;28;20053;-29
2023/04/22 08:23:44;;;;;;;3.25;2.88;;;19.10;67.70;;;;;;5054976;28;20131;-30
2023/04/22 08:26:13;;;;;;;3.45;2.80;;;;;;;;;;5054604;28;20383;-30
2023/04/22 08:28:40;;;;;;;4.05;3.17;;;18.80;67.60;;;;;;5066168;28;20568;-30
2023/04/22 08:31:08;;;;;;;4.05;3.10;;;19.70;68.10;;;;;;5058629;28;20510;-30
2023/04/22 08:33:36;;;;;;;3.28;2.90;;;20.20;68.20;;;;;;5040371;28;20056;-29
2023/04/22 08:36:03;;;;;;;4.95;3.10;;;20.50;68.80;;;;;;5036254;28;20048;-30
2023/04/22 08:38:29;;;;;;;5.72;3.13;;;21.00;69.20;;;;;;5054991;28;20052;-28
2023/04/22 08:40:56;;;;;;;3.63;3.05;;;20.50;53.50;;;;;;5054675;28;20053;-30
2023/04/22 08:43:23;;;;;;;2.90;2.60;;;19.50;68.30;;;;;;5054383;28;20123;-30
2023/04/22 08:45:50;;;;;;;3.40;2.97;;;20.30;69.10;;;;;;5054275;28;20048;-29
2023/04/22 08:48:17;;;;;;;3.70;2.70;;;;;;;;;;5054127;28;20049;-30
2023/04/22 08:50:45;;;;;;;3.35;2.60;;;20.10;49.30;;;;;;5054331;28;20055;-30
2023/04/22 08:53:12;;;;;;;3.10;2.80;;;;;;;;;;5051182;28;20071;-31
2023/04/22 08:55:40;;;;;;;3.28;2.95;;;18.80;53.70;;;;;;5050949;28;20413;-30
2023/04/22 08:58:06;;;;;;;3.20;2.83;;;19.50;67.70;;;;;;5049641;28;20045;-30
2023/04/22 09:00:33;;;;;;;3.25;2.70;;;20.90;63.00;;;;;;5048133;28;20045;-30
2023/04/22 09:03:02;;;;;;;3.33;2.70;;;20.10;68.70;;;;;;5053457;28;20409;-29
2023/04/22 09:05:29;;;;;;;3.15;2.70;;;19.80;67.50;;;;;;5054280;28;20445;-30
2023/04/22 09:07:57;;;;;;;3.78;2.70;;;20.80;69.10;;;;;;5054150;28;20379;-30
2023/04/22 09:10:24;;;;;;;2.67;2.47;;;19.70;67.60;;;;;;5054182;28;20410;-30
2023/04/22 09:12:51;;;;;;;3.00;2.53;;;20.30;68.00;;;;;;5053957;28;20053;-30
2023/04/22 09:15:18;;;;;;;2.70;2.38;;;;;;;;;;5053810;28;20051;-31
2023/04/22 09:17:45;;;;;;;3.25;2.55;;;20.20;67.50;;;;;;5050680;28;20053;-30
2023/04/22 09:20:13;;;;;;;3.47;2.80;;;20.70;49.50;;;;;;5044078;28;20452;-30
2023/04/22 09:22:41;;;;;;;3.88;2.90;;;19.80;48.60;;;;;;5044508;28;20060;-29
2023/04/22 09:25:15;;;;;;;3.38;2.60;;;20.30;48.70;;;;;;5044911;28;20549;-30
2023/04/22 09:27:42;;;;;;;2.50;2.30;;;20.60;67.90;;;;;;5047325;28;20053;-30
2023/04/22 09:30:09;;;;;;;2.95;2.65;;;20.80;67.70;;;;;;5045618;28;20049;-29
2023/04/22 09:32:36;;;;;;;2.72;2.42;;;20.10;67.30;;;;;;5053470;28;20053;-30
2023/04/22 09:35:03;;;;;;;2.58;2.33;;;20.30;52.40;;;;;;5051760;28;20053;-30
2023/04/22 09:37:31;;;;;;;3.58;2.92;;;20.70;53.30;;;;;;5052654;28;20516;-30
2023/04/22 09:39:58;;;;;;;2.50;2.30;;;;;;;;;;5052003;28;20053;-31
2023/04/22 09:42:26;;;;;;;2.85;2.40;;;20.20;67.90;;;;;;5052348;28;20049;-30
2023/04/22 09:44:53;;;;;;;2.58;2.38;;;20.40;67.20;;;;;;5053484;28;20416;-30
2023/04/22 09:47:19;;;;;;;3.00;2.60;;;20.80;58.70;;;;;;5047559;28;20049;-30
2023/04/22 09:49:46;;;;;;;2.60;2.10;;;20.90;49.00;;;;;;5041473;28;20428;-30
2023/04/22 09:52:22;;;;;;;2.80;2.38;;;20.50;67.90;;;;;;5046173;28;20493;-30
2023/04/22 09:54:50;;;;;;;3.17;2.47;;;20.20;61.90;;;;;;5046526;28;20053;-30
2023/04/22 09:57:17;;;;;;;3.95;2.53;;;20.60;67.10;;;;;;5040708;28;20140;-30
2023/04/22 09:59:45;;;;;;;3.65;2.40;;;21.30;67.90;;;;;;5045532;28;20049;-30
2023/04/22 10:02:12;;;;;;;3.08;2.30;;;21.30;68.40;;;;;;5040898;28;20059;-30
2023/04/22 10:04:38;;;;;;;2.83;2.58;;;20.80;67.30;;;;;;5044921;28;20045;-30
2023/04/22 10:07:05;;;;;;;4.80;2.50;;;20.60;58.00;;;;;;5051804;28;20059;-30
2023/04/22 10:09:32;;;;;;;2.97;2.47;;;20.20;67.10;;;;;;5052739;28;20131;-30
2023/04/22 10:12:00;;;;;;;3.75;2.42;;;;;;;;;;5051973;28;20053;-31
2023/04/22 10:14:27;;;;;;;3.95;2.25;;;21.40;50.70;;;;;;5039156;28;20091;-29
2023/04/22 10:16:57;;;;;;;2.72;2.38;;;20.60;48.50;;;;;;5033159;28;20045;-30
2023/04/22 10:19:24;;;;;;;3.00;2.50;;;21.60;58.50;;;;;;5031783;28;20497;-30
2023/04/22 10:21:54;;;;;;;3.33;2.50;;;20.50;48.50;;;;;;5046424;28;20045;-31
2023/04/22 10:24:21;;;;;;;3.17;2.50;;;20.10;67.40;;;;;;5049671;28;20056;-30
2023/04/22 10:26:49;;;;;;;4.03;2.40;;;20.90;51.90;;;;;;5052840;28;20052;-30
2023/04/22 10:29:17;;;;;;;3.42;2.40;;;20.50;48.50;;;;;;5068746;28;20055;-30
2023/04/22 10:31:44;;;;;;;4.03;2.53;;;21.50;64.30;;;;;;5073199;28;20127;-30
2023/04/22 10:34:13;;;;;;;2.72;2.25;;;20.70;68.10;;;;;;5072398;28;20095;-30
2023/04/22 10:36:59;;;;;;;3.35;2.20;;;20.60;48.50;;;;;;5060946;28;20448;-30
2023/04/22 10:39:27;;;;;;;3.10;2.20;;;20.60;55.80;;;;;;5052517;28;20059;-29
2023/04/22 10:41:56;;;;;;;2.55;2.30;;;21.00;67.70;;;;;;5051977;28;20049;-30
2023/04/22 10:44:23;;;;;;;2.20;2.00;;;20.70;67.40;;;;;;5052523;28;20124;-30
2023/04/22 10:46:56;;;;;;;2.97;2.28;;;20.70;48.40;;;;;;5052556;28;20075;-30
2023/04/22 10:49:25;;;;;;;2.50;2.00;;;21.30;67.40;;;;;;5052177;28;20041;-30
2023/04/22 10:51:53;;;;;;;2.47;2.28;;;21.20;67.80;;;;;;5052329;28;20529;-30
2023/04/22 10:54:58;;;;;;;3.92;2.40;;;20.70;48.40;;;;;;5052123;28;20391;-29
2023/04/22 10:57:39;;;;;;;2.70;2.00;;;21.00;63.10;;;;;;5052005;28;20498;-30
2023/04/22 11:00:28;;;;;;;2.63;2.20;;;20.50;67.00;;;;;;5052420;28;20068;-30
2023/04/22 11:03:07;;;;;;;2.50;1.90;;;22.00;67.70;;;;;;5051976;28;20084;-30
2023/04/22 11:05:35;;;;;;;3.90;2.30;;;20.60;67.00;;;;;;5050824;28;20056;-31
2023/04/22 11:08:03;;;;;;;2.42;1.90;;;20.70;67.50;;;;;;5051300;28;20049;-31
2023/04/22 11:10:39;;;;;;;3.65;1.95;;;20.70;67.20;;;;;;5051008;28;20052;-32
2023/04/22 11:13:06;;;;;;;2.33;2.10;;;20.80;67.10;;;;;;5048676;28;20044;-32
2023/04/22 11:15:35;;;;;;;3.60;2.05;;;20.90;64.90;;;;;;5051628;28;20059;-31
2023/04/22 11:18:02;;;;;;;2.55;2.00;;;;;;;;;;5048459;28;20045;-30
2023/04/22 11:20:29;;;;;;;2.85;2.05;;;;;;;;;;5051268;28;20048;-30
2023/04/22 11:22:57;;;;;;;3.33;2.13;;;20.90;48.40;;;;;;5052139;28;20513;-30
2023/04/22 11:25:25;;;;;;;2.47;2.00;;;21.20;67.20;;;;;;5048464;28;20068;-30
2023/04/22 11:27:52;;;;;;;4.72;2.22;;;21.40;60.90;;;;;;5056393;28;20045;-29
2023/04/22 11:30:20;;;;;;;2.10;1.90;;;20.00;67.00;;;;;;5047788;28;20049;-29
2023/04/22 11:32:47;;;;;;;4.25;1.95;;;20.60;67.90;;;;;;5031810;28;20048;-29
2023/04/22 11:35:15;;;;;;;2.80;2.22;;;21.00;67.80;;;;;;5030925;28;20049;-30
2023/04/22 11:37:42;;;;;;;4.53;2.00;;;;;;;;;;5047152;28;20041;-31
2023/04/22 11:40:10;;;;;;;5.25;2.28;;;21.40;66.40;;;;;;5051870;28;20053;-30
2023/04/22 11:42:37;;;;;;;5.07;2.33;;;20.80;67.90;;;;;;5051346;28;20118;-30
2023/04/22 11:45:05;;;;;;;3.55;2.20;;;20.90;48.60;;;;;;5043766;28;20409;-30
2023/04/22 11:47:31;;;;;;;4.95;2.28;;;22.00;67.70;;;;;;5050928;28;20045;-30
2023/04/22 11:50:00;;;;;;;5.13;2.40;;;;;;;;;;5051905;28;20051;-30
2023/04/22 11:52:43;;;;;;;2.90;2.30;;;20.60;66.90;;;;;;5051300;28;20072;-29
2023/04/22 11:55:12;;;;;;;3.67;2.30;;;21.00;68.20;;;;;;5051381;28;20056;-29
2023/04/22 11:57:39;;;;;;;3.17;2.13;;;20.70;53.90;;;;;;5050820;28;20425;-30
2023/04/22 12:00:07;;;;;;;4.03;2.20;;;20.90;48.60;;;;;;5031742;28;20141;-29
2023/04/22 12:02:34;;;;;;;2.15;1.92;;;21.20;68.20;;;;;;5035787;28;20059;-29
2023/04/22 12:05:01;;;;;;;4.20;2.33;;;20.60;53.20;;;;;;5051529;28;20584;-30
2023/04/22 12:07:28;;;;;;;2.60;2.00;;;;;;;;;;5049722;28;20055;-30
2023/04/22 12:09:55;;;;;;;3.83;2.17;;;20.80;67.20;;;;;;5035965;28;20045;-30
2023/04/22 12:12:25;;;;;;;2.45;2.05;;;20.70;68.10;;;;;;5031332;28;20042;-30
2023/04/22 12:14:52;;;;;;;2.97;1.90;;;21.30;67.60;;;;;;5032870;28;20413;-30
2023/04/22 12:17:22;;;;;;;7.85;2.35;;;21.00;48.90;;;;;;5051107;28;20037;-31
2023/04/22 12:19:53;;;;;;;3.72;2.20;;;20.70;63.40;;;;;;5050740;28;20487;-30
2023/04/22 12:22:25;;;;;;;4.25;2.30;;;21.20;67.70;;;;;;5050516;28;20049;-30
2023/04/22 12:24:51;;;;;;;4.40;2.00;;;21.20;67.20;;;;;;5051205;28;20485;-29
2023/04/22 12:27:18;;;;;;;5.10;2.10;;;;;;;;;;5051531;28;20055;-30
2023/04/22 12:29:52;;;;;;;4.90;2.30;;;21.00;49.20;;;;;;5071476;28;20052;-30
2023/04/22 12:32:20;;;;;;;3.17;2.17;;;20.40;52.20;;;;;;5071168;28;20055;-30
2023/04/22 12:34:46;;;;;;;3.15;1.98;;;20.30;67.40;;;;;;5071128;28;20309;-30
2023/04/22 12:37:13;;;;;;;4.38;2.22;;;;;;;;;;5054168;28;20044;-31
2023/04/22 12:39:40;;;;;;;3.80;2.40;;;;;;;;;;5039164;28;20054;-29
2023/04/22 12:42:07;;;;;;;4.10;2.42;;;;;;;;;;5031277;28;20056;-31
2023/04/22 12:44:35;;;;;;;3.08;1.92;;;;;;;;;;5031344;28;20064;-30
2023/04/22 12:47:03;;;;;;;2.92;2.10;;;21.00;49.50;;;;;;5034377;28;20049;-31
2023/04/22 12:49:30;;;;;;;5.65;2.20;;;;;;;;;;5034659;28;20050;-30
2023/04/22 12:51:57;;;;;;;3.00;2.28;;;;;;;;;;5052407;28;20556;-30
2023/04/22 12:54:24;;;;;;;4.05;1.95;;;;;;;;;;5037415;28;20049;-30
2023/04/22 12:56:51;;;;;;;2.80;2.10;;;20.20;67.40;;;;;;5034445;28;20063;-29
2023/04/22 12:59:18;;;;;;;2.10;1.80;;;;;;;;;;5034663;28;20068;-29
2023/04/22 13:01:44;;;;;;;3.10;1.90;;;21.30;64.80;;;;;;5034759;28;20049;-29
2023/04/22 13:04:12;;;;;;;3.50;2.13;;;21.00;68.40;;;;;;5034336;28;20053;-30
2023/04/22 13:06:40;;;;;;;2.95;2.10;;;21.20;68.10;;;;;;5035621;28;20054;-30
2023/04/22 13:09:07;;;;;;;4.10;2.00;;;20.00;68.30;;;;;;5034332;28;20053;-30